Springfield, Idaho
Current Conditions -  °F | °C
As of 1:53 AM on Saturday 25 Oct 2014 (Local Time) from KPIH Reporting Station
Clear Clear  
Wind Chill: 39°   Ceiling: Unl
Heat Index: 42°   Visibility: 10mi
Dew Point: 30°   Wind: 5mph
Humidity: 62%   Direction: 250°WSW
Pressure: 30.06"   Gusts: NA
Location:  43.08°N, 112.68°W
Report Text: KPIH 250753Z AUTO 25004KT 10SM CLR 06/M01 A3006 RMK AO2 SLP156 T00561011
Loading
Personal Weather Stations






























Interactive Weather Map
Tropical Storm Tracking
New forecast layout! Learn more

10-Day Weather Forecast

Advertisements
Track Severe Weather on mobile